To NAV CANADA Home Page Login to a new session Search on AWWS site Feedback and Comments Disclaimer Vers la page française équivalente Tips FAQ What's new on the site To the Forecasts and Observations / NOTAM section To "File a Flight Plan" website Publications and other links Update of the User's profile FIC Telephone Numbers My Weather Data Folder Route Weather Data Regional Weather Data Local Weather Data To the Forecasts and Observations / NOTAM section
Request Generated 02/23/2017 at 20:46:42 UTC . Weather information available at that time is displayed.

METAR/TAF

BURWASH/YT    (show WxCam)

METAR CYDB 232000Z 13003KT 100V200 30SM SCT035 BKN060 OVC100 M12/M16
A3034 RMK SC3SC3AC2 DIST PCPN SE-SW SLP360=
METAR CYDB 231900Z VRB02KT 30SM SCT045 BKN070 OVC085 M14/M17 A3034
RMK SC3AC2AC3 DIST PCPN SE-SW SLP362=
METAR CYDB 231800Z 00000KT 30SM SCT070 OVC085 M15/M18 A3033 RMK
AC4AC4 PCPN DIST SE-SW SLP359=

TAF CYDB 231738Z 2318/2406 VRB03KT P6SM BKN080 BKN140
RMK NXT FCST BY 240000Z=
Your time UTC time
Weather data provided by Environment Canada and NAV CANADA